sensor_id;sensor_type;location;lat;lon;timestamp;temperature;humidity
22456;DHT22;11395;53.204;6.502;2023-03-01T00:01:19;21.00;80.00
22456;DHT22;11395;53.204;6.502;2023-03-01T00:03:46;21.10;81.80
22456;DHT22;11395;53.204;6.502;2023-03-01T00:06:13;20.90;80.10
22456;DHT22;11395;53.204;6.502;2023-03-01T00:08:40;20.90;80.20
22456;DHT22;11395;53.204;6.502;2023-03-01T00:13:37;20.70;79.50
22456;DHT22;11395;53.204;6.502;2023-03-01T00:16:07;20.80;80.00
22456;DHT22;11395;53.204;6.502;2023-03-01T00:18:34;20.70;78.90
22456;DHT22;11395;53.204;6.502;2023-03-01T00:21:01;20.70;80.10
22456;DHT22;11395;53.204;6.502;2023-03-01T00:23:27;20.70;80.40
22456;DHT22;11395;53.204;6.502;2023-03-01T00:25:54;20.70;81.40
22456;DHT22;11395;53.204;6.502;2023-03-01T00:28:20;20.60;80.20
22456;DHT22;11395;53.204;6.502;2023-03-01T00:30:47;20.60;80.40
22456;DHT22;11395;53.204;6.502;2023-03-01T00:33:13;20.60;80.80
22456;DHT22;11395;53.204;6.502;2023-03-01T00:35:39;20.60;80.50
22456;DHT22;11395;53.204;6.502;2023-03-01T00:38:06;20.60;80.50
22456;DHT22;11395;53.204;6.502;2023-03-01T00:40:34;20.60;80.90
22456;DHT22;11395;53.204;6.502;2023-03-01T00:43:01;20.60;81.50
22456;DHT22;11395;53.204;6.502;2023-03-01T00:45:27;20.50;80.60
22456;DHT22;11395;53.204;6.502;2023-03-01T00:47:53;20.50;80.10
22456;DHT22;11395;53.204;6.502;2023-03-01T00:50:20;20.50;79.90
22456;DHT22;11395;53.204;6.502;2023-03-01T00:52:46;20.40;80.70
22456;DHT22;11395;53.204;6.502;2023-03-01T00:55:12;20.40;81.40
22456;DHT22;11395;53.204;6.502;2023-03-01T00:57:39;20.30;80.70
22456;DHT22;11395;53.204;6.502;2023-03-01T01:00:06;20.30;80.80
22456;DHT22;11395;53.204;6.502;2023-03-01T01:02:33;20.20;82.30
22456;DHT22;11395;53.204;6.502;2023-03-01T01:05:00;20.20;83.80
22456;DHT22;11395;53.204;6.502;2023-03-01T01:07:27;20.20;83.10
22456;DHT22;11395;53.204;6.502;2023-03-01T01:09:53;20.10;83.70
22456;DHT22;11395;53.204;6.502;2023-03-01T01:12:19;20.00;85.00
22456;DHT22;11395;53.204;6.502;2023-03-01T01:14:45;20.00;82.40
22456;DHT22;11395;53.204;6.502;2023-03-01T01:17:12;20.10;82.80
22456;DHT22;11395;53.204;6.502;2023-03-01T01:19:38;20.00;82.40
22456;DHT22;11395;53.204;6.502;2023-03-01T01:22:04;19.90;81.30
22456;DHT22;11395;53.204;6.502;2023-03-01T01:24:31;19.90;82.50
22456;DHT22;11395;53.204;6.502;2023-03-01T01:26:57;19.90;82.40
22456;DHT22;11395;53.204;6.502;2023-03-01T01:29:24;19.90;80.80
22456;DHT22;11395;53.204;6.502;2023-03-01T01:31:50;19.90;81.40
22456;DHT22;11395;53.204;6.502;2023-03-01T01:34:19;19.80;80.90
22456;DHT22;11395;53.204;6.502;2023-03-01T01:36:50;19.70;83.00
22456;DHT22;11395;53.204;6.502;2023-03-01T01:39:17;19.70;83.80
22456;DHT22;11395;53.204;6.502;2023-03-01T01:41:44;19.70;85.40
22456;DHT22;11395;53.204;6.502;2023-03-01T01:44:25;19.60;86.50
22456;DHT22;11395;53.204;6.502;2023-03-01T01:52:04;19.60;84.70
22456;DHT22;11395;53.204;6.502;2023-03-01T01:57:29;19.50;56.00
22456;DHT22;11395;53.204;6.502;2023-03-01T02:00:03;19.40;56.40
22456;DHT22;11395;53.204;6.502;2023-03-01T02:02:40;19.40;57.60
22456;DHT22;11395;53.204;6.502;2023-03-01T02:05:35;19.30;57.10
22456;DHT22;11395;53.204;6.502;2023-03-01T02:08:02;19.30;57.10
22456;DHT22;11395;53.204;6.502;2023-03-01T02:10:29;19.30;57.50
22456;DHT22;11395;53.204;6.502;2023-03-01T02:13:00;19.20;57.40
22456;DHT22;11395;53.204;6.502;2023-03-01T02:15:27;19.20;58.60
22456;DHT22;11395;53.204;6.502;2023-03-01T02:17:57;19.20;57.50
22456;DHT22;11395;53.204;6.502;2023-03-01T02:20:35;19.10;57.20
22456;DHT22;11395;53.204;6.502;2023-03-01T02:23:05;19.10;58.50
22456;DHT22;11395;53.204;6.502;2023-03-01T02:25:58;19.10;57.10
22456;DHT22;11395;53.204;6.502;2023-03-01T02:28:33;19.00;58.20
22456;DHT22;11395;53.204;6.502;2023-03-01T02:31:01;19.00;57.40
22456;DHT22;11395;53.204;6.502;2023-03-01T02:33:48;19.00;57.50
22456;DHT22;11395;53.204;6.502;2023-03-01T02:36:18;19.00;57.10
22456;DHT22;11395;53.204;6.502;2023-03-01T02:38:48;18.90;57.40
22456;DHT22;11395;53.204;6.502;2023-03-01T02:41:16;18.90;57.20
22456;DHT22;11395;53.204;6.502;2023-03-01T02:43:44;18.90;57.10
22456;DHT22;11395;53.204;6.502;2023-03-01T02:46:19;18.90;57.00
22456;DHT22;11395;53.204;6.502;2023-03-01T02:48:54;18.80;57.60
22456;DHT22;11395;53.204;6.502;2023-03-01T02:54:07;18.80;56.90
22456;DHT22;11395;53.204;6.502;2023-03-01T02:56:36;18.80;57.40
22456;DHT22;11395;53.204;6.502;2023-03-01T02:59:02;18.70;56.80
22456;DHT22;11395;53.204;6.502;2023-03-01T03:01:30;18.70;57.00
22456;DHT22;11395;53.204;6.502;2023-03-01T03:04:09;18.70;57.10
22456;DHT22;11395;53.204;6.502;2023-03-01T03:06:37;18.70;56.50
22456;DHT22;11395;53.204;6.502;2023-03-01T03:09:04;18.80;56.60
22456;DHT22;11395;53.204;6.502;2023-03-01T03:11:30;18.80;56.50
22456;DHT22;11395;53.204;6.502;2023-03-01T03:13:58;18.90;56.50
22456;DHT22;11395;53.204;6.502;2023-03-01T03:16:24;18.90;56.30
22456;DHT22;11395;53.204;6.502;2023-03-01T03:18:51;19.00;56.30
22456;DHT22;11395;53.204;6.502;2023-03-01T03:21:17;19.10;56.20
22456;DHT22;11395;53.204;6.502;2023-03-01T03:23:43;19.10;56.00
22456;DHT22;11395;53.204;6.502;2023-03-01T03:26:10;19.10;55.80
22456;DHT22;11395;53.204;6.502;2023-03-01T03:28:40;19.10;55.80
22456;DHT22;11395;53.204;6.502;2023-03-01T03:31:07;19.20;55.90
22456;DHT22;11395;53.204;6.502;2023-03-01T03:33:34;19.20;55.70
22456;DHT22;11395;53.204;6.502;2023-03-01T03:36:00;19.20;55.70
22456;DHT22;11395;53.204;6.502;2023-03-01T03:38:26;19.20;55.70
22456;DHT22;11395;53.204;6.502;2023-03-01T03:41:08;19.20;55.70
22456;DHT22;11395;53.204;6.502;2023-03-01T03:43:36;19.20;55.70
22456;DHT22;11395;53.204;6.502;2023-03-01T03:46:04;19.20;55.60
22456;DHT22;11395;53.204;6.502;2023-03-01T03:48:33;19.20;55.50
22456;DHT22;11395;53.204;6.502;2023-03-01T03:51:00;19.10;55.60
22456;DHT22;11395;53.204;6.502;2023-03-01T03:53:27;19.10;55.40
22456;DHT22;11395;53.204;6.502;2023-03-01T03:55:55;19.10;55.40
22456;DHT22;11395;53.204;6.502;2023-03-01T03:58:23;19.10;55.30
22456;DHT22;11395;53.204;6.502;2023-03-01T04:00:52;19.10;55.40
22456;DHT22;11395;53.204;6.502;2023-03-01T04:03:19;19.10;55.40
22456;DHT22;11395;53.204;6.502;2023-03-01T04:05:46;19.10;55.50
22456;DHT22;11395;53.204;6.502;2023-03-01T04:08:13;19.10;55.40
22456;DHT22;11395;53.204;6.502;2023-03-01T04:10:41;19.10;55.40
22456;DHT22;11395;53.204;6.502;2023-03-01T04:13:11;19.10;55.40
22456;DHT22;11395;53.204;6.502;2023-03-01T04:15:38;19.10;55.50
22456;DHT22;11395;53.204;6.502;2023-03-01T04:18:05;19.20;55.40
22456;DHT22;11395;53.204;6.502;2023-03-01T04:20:34;19.20;55.20
22456;DHT22;11395;53.204;6.502;2023-03-01T04:23:06;19.40;55.10
22456;DHT22;11395;53.204;6.502;2023-03-01T04:25:40;19.50;55.20
22456;DHT22;11395;53.204;6.502;2023-03-01T04:28:07;19.60;54.50
22456;DHT22;11395;53.204;6.502;2023-03-01T04:30:35;19.80;55.00
22456;DHT22;11395;53.204;6.502;2023-03-01T04:33:03;19.90;54.10
22456;DHT22;11395;53.204;6.502;2023-03-01T04:35:30;20.10;53.80
22456;DHT22;11395;53.204;6.502;2023-03-01T04:37:57;20.20;53.40
22456;DHT22;11395;53.204;6.502;2023-03-01T04:40:23;20.40;53.20
22456;DHT22;11395;53.204;6.502;2023-03-01T04:42:50;20.50;52.90
22456;DHT22;11395;53.204;6.502;2023-03-01T04:45:16;20.60;52.70
22456;DHT22;11395;53.204;6.502;2023-03-01T04:47:44;20.80;52.50
22456;DHT22;11395;53.204;6.502;2023-03-01T04:50:14;20.90;52.60
22456;DHT22;11395;53.204;6.502;2023-03-01T04:52:41;21.10;52.70
22456;DHT22;11395;53.204;6.502;2023-03-01T04:55:08;21.10;51.90
22456;DHT22;11395;53.204;6.502;2023-03-01T04:57:35;21.30;52.00
22456;DHT22;11395;53.204;6.502;2023-03-01T05:00:02;21.40;52.00
22456;DHT22;11395;53.204;6.502;2023-03-01T05:02:54;21.40;52.40
22456;DHT22;11395;53.204;6.502;2023-03-01T05:05:34;21.50;54.50
22456;DHT22;11395;53.204;6.502;2023-03-01T05:08:04;21.60;53.50
22456;DHT22;11395;53.204;6.502;2023-03-01T05:10:32;21.60;54.30
22456;DHT22;11395;53.204;6.502;2023-03-01T05:12:59;21.60;54.60
22456;DHT22;11395;53.204;6.502;2023-03-01T05:15:26;21.60;54.60
22456;DHT22;11395;53.204;6.502;2023-03-01T05:17:55;21.70;55.70
22456;DHT22;11395;53.204;6.502;2023-03-01T05:20:25;21.70;54.60
22456;DHT22;11395;53.204;6.502;2023-03-01T05:22:56;21.80;53.80
22456;DHT22;11395;53.204;6.502;2023-03-01T05:25:22;21.80;54.00
22456;DHT22;11395;53.204;6.502;2023-03-01T05:27:48;21.90;51.70
22456;DHT22;11395;53.204;6.502;2023-03-01T05:30:15;22.00;51.20
22456;DHT22;11395;53.204;6.502;2023-03-01T05:32:43;22.10;51.30
22456;DHT22;11395;53.204;6.502;2023-03-01T05:35:11;22.20;51.70
22456;DHT22;11395;53.204;6.502;2023-03-01T05:37:43;22.30;52.00
22456;DHT22;11395;53.204;6.502;2023-03-01T05:40:12;22.40;51.20
22456;DHT22;11395;53.204;6.502;2023-03-01T05:42:43;22.50;53.50
22456;DHT22;11395;53.204;6.502;2023-03-01T05:54:56;23.20;51.00
22456;DHT22;11395;53.204;6.502;2023-03-01T05:57:22;23.20;52.40
22456;DHT22;11395;53.204;6.502;2023-03-01T05:59:48;23.20;53.50
22456;DHT22;11395;53.204;6.502;2023-03-01T06:02:14;23.30;53.30
22456;DHT22;11395;53.204;6.502;2023-03-01T06:04:40;23.30;53.60
22456;DHT22;11395;53.204;6.502;2023-03-01T06:07:06;23.40;54.00
22456;DHT22;11395;53.204;6.502;2023-03-01T06:09:32;23.40;53.90
22456;DHT22;11395;53.204;6.502;2023-03-01T06:11:59;23.50;54.40
22456;DHT22;11395;53.204;6.502;2023-03-01T06:14:25;23.50;54.10
22456;DHT22;11395;53.204;6.502;2023-03-01T06:16:52;23.60;54.10
22456;DHT22;11395;53.204;6.502;2023-03-01T06:19:18;23.60;54.20
22456;DHT22;11395;53.204;6.502;2023-03-01T06:21:44;23.60;54.30
22456;DHT22;11395;53.204;6.502;2023-03-01T06:24:10;23.70;54.60
22456;DHT22;11395;53.204;6.502;2023-03-01T06:26:36;23.60;54.60
22456;DHT22;11395;53.204;6.502;2023-03-01T06:29:02;23.60;54.90
22456;DHT22;11395;53.204;6.502;2023-03-01T06:31:28;23.50;54.80
22456;DHT22;11395;53.204;6.502;2023-03-01T06:33:55;23.50;55.10
22456;DHT22;11395;53.204;6.502;2023-03-01T06:36:21;23.50;54.80
22456;DHT22;11395;53.204;6.502;2023-03-01T06:38:47;23.40;55.30
22456;DHT22;11395;53.204;6.502;2023-03-01T06:41:14;23.40;54.80
22456;DHT22;11395;53.204;6.502;2023-03-01T06:43:40;23.40;55.00
22456;DHT22;11395;53.204;6.502;2023-03-01T06:46:06;23.40;55.70
22456;DHT22;11395;53.204;6.502;2023-03-01T06:48:33;23.40;55.60
22456;DHT22;11395;53.204;6.502;2023-03-01T06:51:00;23.40;56.30
22456;DHT22;11395;53.204;6.502;2023-03-01T06:53:30;23.50;49.60
22456;DHT22;11395;53.204;6.502;2023-03-01T06:55:59;23.50;49.70
22456;DHT22;11395;53.204;6.502;2023-03-01T06:58:28;23.60;49.90
22456;DHT22;11395;53.204;6.502;2023-03-01T07:00:54;23.60;49.60
22456;DHT22;11395;53.204;6.502;2023-03-01T07:03:20;23.70;49.70
22456;DHT22;11395;53.204;6.502;2023-03-01T07:05:50;23.70;49.40
22456;DHT22;11395;53.204;6.502;2023-03-01T07:08:19;23.70;49.50
22456;DHT22;11395;53.204;6.502;2023-03-01T07:10:46;23.80;49.50
22456;DHT22;11395;53.204;6.502;2023-03-01T07:13:12;23.80;49.40
22456;DHT22;11395;53.204;6.502;2023-03-01T07:15:40;23.80;49.20
22456;DHT22;11395;53.204;6.502;2023-03-01T07:18:06;23.80;49.20
22456;DHT22;11395;53.204;6.502;2023-03-01T07:20:32;23.90;49.10
22456;DHT22;11395;53.204;6.502;2023-03-01T07:22:58;23.80;49.00
22456;DHT22;11395;53.204;6.502;2023-03-01T07:25:25;23.80;49.00
22456;DHT22;11395;53.204;6.502;2023-03-01T07:27:52;23.80;48.90
22456;DHT22;11395;53.204;6.502;2023-03-01T07:30:20;23.80;48.80
22456;DHT22;11395;53.204;6.502;2023-03-01T07:32:47;23.80;48.80
22456;DHT22;11395;53.204;6.502;2023-03-01T07:35:13;23.80;48.90
22456;DHT22;11395;53.204;6.502;2023-03-01T07:37:40;23.80;48.90
22456;DHT22;11395;53.204;6.502;2023-03-01T07:40:07;23.70;48.80
22456;DHT22;11395;53.204;6.502;2023-03-01T07:42:33;23.70;48.80
22456;DHT22;11395;53.204;6.502;2023-03-01T07:45:00;23.70;49.10
22456;DHT22;11395;53.204;6.502;2023-03-01T07:47:26;23.70;49.10
22456;DHT22;11395;53.204;6.502;2023-03-01T07:49:52;23.70;49.10
22456;DHT22;11395;53.204;6.502;2023-03-01T07:52:18;23.70;49.10
22456;DHT22;11395;53.204;6.502;2023-03-01T07:54:45;23.80;49.20
22456;DHT22;11395;53.204;6.502;2023-03-01T07:57:11;23.80;49.00
22456;DHT22;11395;53.204;6.502;2023-03-01T07:59:37;23.90;49.20
22456;DHT22;11395;53.204;6.502;2023-03-01T08:02:04;23.90;49.10
22456;DHT22;11395;53.204;6.502;2023-03-01T08:04:30;23.90;49.10
22456;DHT22;11395;53.204;6.502;2023-03-01T08:06:56;24.00;49.10
22456;DHT22;11395;53.204;6.502;2023-03-01T08:09:22;24.10;48.90
22456;DHT22;11395;53.204;6.502;2023-03-01T08:11:48;24.10;48.90
22456;DHT22;11395;53.204;6.502;2023-03-01T08:14:15;24.10;49.00
22456;DHT22;11395;53.204;6.502;2023-03-01T08:16:41;24.20;49.10
22456;DHT22;11395;53.204;6.502;2023-03-01T08:19:09;24.20;48.90
22456;DHT22;11395;53.204;6.502;2023-03-01T08:21:36;24.20;48.90
22456;DHT22;11395;53.204;6.502;2023-03-01T08:24:03;24.30;48.80
22456;DHT22;11395;53.204;6.502;2023-03-01T08:26:30;24.20;48.90
22456;DHT22;11395;53.204;6.502;2023-03-01T08:28:56;24.20;49.40
22456;DHT22;11395;53.204;6.502;2023-03-01T08:31:28;24.40;49.30
22456;DHT22;11395;53.204;6.502;2023-03-01T08:33:58;24.40;49.20
22456;DHT22;11395;53.204;6.502;2023-03-01T08:36:27;24.50;49.10
22456;DHT22;11395;53.204;6.502;2023-03-01T08:38:54;24.60;49.00
22456;DHT22;11395;53.204;6.502;2023-03-01T08:41:21;24.60;48.80
22456;DHT22;11395;53.204;6.502;2023-03-01T08:43:47;24.60;48.90
22456;DHT22;11395;53.204;6.502;2023-03-01T08:46:13;24.70;48.70
22456;DHT22;11395;53.204;6.502;2023-03-01T08:48:39;24.80;48.60
22456;DHT22;11395;53.204;6.502;2023-03-01T08:51:17;24.90;48.50
22456;DHT22;11395;53.204;6.502;2023-03-01T08:53:43;25.00;48.40
22456;DHT22;11395;53.204;6.502;2023-03-01T08:56:10;25.00;48.10
22456;DHT22;11395;53.204;6.502;2023-03-01T08:58:37;25.00;48.10
22456;DHT22;11395;53.204;6.502;2023-03-01T09:01:09;25.00;48.20
22456;DHT22;11395;53.204;6.502;2023-03-01T09:03:36;25.10;48.10
22456;DHT22;11395;53.204;6.502;2023-03-01T09:06:04;25.10;48.10
22456;DHT22;11395;53.204;6.502;2023-03-01T09:08:31;25.10;48.00
22456;DHT22;11395;53.204;6.502;2023-03-01T09:11:02;25.10;48.00
22456;DHT22;11395;53.204;6.502;2023-03-01T09:13:29;25.00;48.00
22456;DHT22;11395;53.204;6.502;2023-03-01T09:15:57;25.00;47.90
22456;DHT22;11395;53.204;6.502;2023-03-01T09:18:24;25.00;48.00
22456;DHT22;11395;53.204;6.502;2023-03-01T09:20:50;25.00;48.00
22456;DHT22;11395;53.204;6.502;2023-03-01T09:23:16;24.90;48.00
22456;DHT22;11395;53.204;6.502;2023-03-01T09:25:42;24.90;48.10
22456;DHT22;11395;53.204;6.502;2023-03-01T09:28:09;24.90;48.20
22456;DHT22;11395;53.204;6.502;2023-03-01T09:30:36;24.80;48.20
22456;DHT22;11395;53.204;6.502;2023-03-01T09:33:03;24.90;48.40
22456;DHT22;11395;53.204;6.502;2023-03-01T09:35:29;24.90;48.30
22456;DHT22;11395;53.204;6.502;2023-03-01T09:37:55;25.00;48.20
22456;DHT22;11395;53.204;6.502;2023-03-01T09:40:24;25.10;48.10
22456;DHT22;11395;53.204;6.502;2023-03-01T09:43:54;25.20;48.30
22456;DHT22;11395;53.204;6.502;2023-03-01T09:45:58;25.30;48.30
22456;DHT22;11395;53.204;6.502;2023-03-01T09:48:27;25.40;48.10
22456;DHT22;11395;53.204;6.502;2023-03-01T09:50:56;25.50;48.10
22456;DHT22;11395;53.204;6.502;2023-03-01T09:53:31;25.70;47.90
22456;DHT22;11395;53.204;6.502;2023-03-01T09:56:05;25.70;47.70
22456;DHT22;11395;53.204;6.502;2023-03-01T09:59:18;25.80;47.60
22456;DHT22;11395;53.204;6.502;2023-03-01T10:09:38;25.90;47.50
22456;DHT22;11395;53.204;6.502;2023-03-01T10:12:10;25.90;47.40
22456;DHT22;11395;53.204;6.502;2023-03-01T10:14:58;25.90;47.40
22456;DHT22;11395;53.204;6.502;2023-03-01T10:22:47;25.80;47.40
22456;DHT22;11395;53.204;6.502;2023-03-01T10:31:44;25.70;47.50
22456;DHT22;11395;53.204;6.502;2023-03-01T10:36:41;25.70;47.70
22456;DHT22;11395;53.204;6.502;2023-03-01T10:39:26;25.60;47.80
22456;DHT22;11395;53.204;6.502;2023-03-01T10:41:58;25.60;47.90
22456;DHT22;11395;53.204;6.502;2023-03-01T10:44:40;25.50;47.90
22456;DHT22;11395;53.204;6.502;2023-03-01T10:47:14;25.60;47.90
22456;DHT22;11395;53.204;6.502;2023-03-01T10:52:26;25.60;47.80
22456;DHT22;11395;53.204;6.502;2023-03-01T10:54:59;25.60;47.80
22456;DHT22;11395;53.204;6.502;2023-03-01T10:57:38;25.70;47.80
22456;DHT22;11395;53.204;6.502;2023-03-01T11:00:23;25.70;47.60
22456;DHT22;11395;53.204;6.502;2023-03-01T11:05:26;25.80;48.00
22456;DHT22;11395;53.204;6.502;2023-03-01T11:08:00;25.80;47.50
22456;DHT22;11395;53.204;6.502;2023-03-01T11:10:29;25.80;47.50
22456;DHT22;11395;53.204;6.502;2023-03-01T11:15:41;25.70;47.40
22456;DHT22;11395;53.204;6.502;2023-03-01T11:18:22;25.60;47.50
22456;DHT22;11395;53.204;6.502;2023-03-01T11:20:51;25.60;47.50
22456;DHT22;11395;53.204;6.502;2023-03-01T11:23:20;25.60;47.60
22456;DHT22;11395;53.204;6.502;2023-03-01T11:26:01;25.50;47.50
22456;DHT22;11395;53.204;6.502;2023-03-01T11:28:29;25.50;47.50
22456;DHT22;11395;53.204;6.502;2023-03-01T11:31:01;25.50;47.70
22456;DHT22;11395;53.204;6.502;2023-03-01T11:38:42;25.30;47.70
22456;DHT22;11395;53.204;6.502;2023-03-01T11:41:18;25.30;47.80
22456;DHT22;11395;53.204;6.502;2023-03-01T11:43:59;25.30;47.80
22456;DHT22;11395;53.204;6.502;2023-03-01T12:11:12;24.60;49.20
22456;DHT22;11395;53.204;6.502;2023-03-01T12:22:35;24.60;49.80
22456;DHT22;11395;53.204;6.502;2023-03-01T12:25:29;24.50;50.10
22456;DHT22;11395;53.204;6.502;2023-03-01T12:33:39;24.40;50.80
22456;DHT22;11395;53.204;6.502;2023-03-01T12:45:12;23.90;51.60
22456;DHT22;11395;53.204;6.502;2023-03-01T12:50:21;23.70;51.90
22456;DHT22;11395;53.204;6.502;2023-03-01T12:52:55;23.70;52.00
22456;DHT22;11395;53.204;6.502;2023-03-01T12:55:36;23.60;51.90
22456;DHT22;11395;53.204;6.502;2023-03-01T12:58:15;23.60;52.00
22456;DHT22;11395;53.204;6.502;2023-03-01T13:07:21;23.30;52.40
22456;DHT22;11395;53.204;6.502;2023-03-01T13:09:54;23.30;52.30
22456;DHT22;11395;53.204;6.502;2023-03-01T13:12:47;23.20;52.40
22456;DHT22;11395;53.204;6.502;2023-03-01T13:17:58;23.20;52.60
22456;DHT22;11395;53.204;6.502;2023-03-01T13:20:33;23.20;52.50
22456;DHT22;11395;53.204;6.502;2023-03-01T13:47:16;23.80;51.90
22456;DHT22;11395;53.204;6.502;2023-03-01T13:49:47;23.80;51.80
22456;DHT22;11395;53.204;6.502;2023-03-01T13:52:42;23.80;51.70
22456;DHT22;11395;53.204;6.502;2023-03-01T13:57:48;23.80;51.80
22456;DHT22;11395;53.204;6.502;2023-03-01T14:00:37;23.80;51.70
22456;DHT22;11395;53.204;6.502;2023-03-01T14:03:19;23.80;51.80
22456;DHT22;11395;53.204;6.502;2023-03-01T14:06:08;23.80;51.80
22456;DHT22;11395;53.204;6.502;2023-03-01T14:08:36;23.80;51.90
22456;DHT22;11395;53.204;6.502;2023-03-01T14:19:29;23.90;52.40
22456;DHT22;11395;53.204;6.502;2023-03-01T14:24:50;23.60;52.30
22456;DHT22;11395;53.204;6.502;2023-03-01T14:27:18;23.60;52.50
22456;DHT22;11395;53.204;6.502;2023-03-01T14:30:12;23.60;52.70
22456;DHT22;11395;53.204;6.502;2023-03-01T14:32:41;23.60;52.80
22456;DHT22;11395;53.204;6.502;2023-03-01T14:35:26;23.50;53.10
22456;DHT22;11395;53.204;6.502;2023-03-01T14:37:53;23.40;52.90
22456;DHT22;11395;53.204;6.502;2023-03-01T14:44:21;23.40;53.10
22456;DHT22;11395;53.204;6.502;2023-03-01T14:46:55;23.40;53.20
22456;DHT22;11395;53.204;6.502;2023-03-01T14:56:46;23.30;53.40
22456;DHT22;11395;53.204;6.502;2023-03-01T14:59:13;23.30;53.60
22456;DHT22;11395;53.204;6.502;2023-03-01T15:01:41;23.30;53.70
22456;DHT22;11395;53.204;6.502;2023-03-01T15:04:14;23.20;53.60
22456;DHT22;11395;53.204;6.502;2023-03-01T15:06:41;23.20;53.70
22456;DHT22;11395;53.204;6.502;2023-03-01T15:09:13;23.10;53.70
22456;DHT22;11395;53.204;6.502;2023-03-01T15:11:43;23.10;53.80
22456;DHT22;11395;53.204;6.502;2023-03-01T15:14:40;23.10;53.70
22456;DHT22;11395;53.204;6.502;2023-03-01T15:19:57;23.00;53.70
22456;DHT22;11395;53.204;6.502;2023-03-01T15:22:31;22.90;53.80
22456;DHT22;11395;53.204;6.502;2023-03-01T15:25:17;22.90;53.80
22456;DHT22;11395;53.204;6.502;2023-03-01T15:27:49;22.80;54.00
22456;DHT22;11395;53.204;6.502;2023-03-01T15:30:26;22.80;53.90
22456;DHT22;11395;53.204;6.502;2023-03-01T15:33:35;23.80;55.00
22456;DHT22;11395;53.204;6.502;2023-03-01T15:36:31;23.00;54.20
22456;DHT22;11395;53.204;6.502;2023-03-01T15:38:59;23.00;54.20
22456;DHT22;11395;53.204;6.502;2023-03-01T15:41:28;23.10;54.40
22456;DHT22;11395;53.204;6.502;2023-03-01T15:43:58;23.20;54.10
22456;DHT22;11395;53.204;6.502;2023-03-01T15:46:33;24.20;54.70
22456;DHT22;11395;53.204;6.502;2023-03-01T15:49:03;24.20;54.40
22456;DHT22;11395;53.204;6.502;2023-03-01T15:51:33;23.60;54.10
22456;DHT22;11395;53.204;6.502;2023-03-01T15:54:11;23.50;53.90
22456;DHT22;11395;53.204;6.502;2023-03-01T15:56:48;23.60;53.60
22456;DHT22;11395;53.204;6.502;2023-03-01T15:59:15;23.50;53.50
22456;DHT22;11395;53.204;6.502;2023-03-01T16:01:41;23.60;54.10
22456;DHT22;11395;53.204;6.502;2023-03-01T16:04:16;23.60;54.10
22456;DHT22;11395;53.204;6.502;2023-03-01T16:06:47;23.60;53.80
22456;DHT22;11395;53.204;6.502;2023-03-01T16:09:24;23.60;53.60
22456;DHT22;11395;53.204;6.502;2023-03-01T16:11:51;23.60;53.70
22456;DHT22;11395;53.204;6.502;2023-03-01T16:14:18;23.60;53.60
22456;DHT22;11395;53.204;6.502;2023-03-01T16:16:46;23.60;53.60
22456;DHT22;11395;53.204;6.502;2023-03-01T16:19:14;24.00;53.70
22456;DHT22;11395;53.204;6.502;2023-03-01T16:21:44;23.50;53.40
22456;DHT22;11395;53.204;6.502;2023-03-01T16:24:13;24.30;54.20
22456;DHT22;11395;53.204;6.502;2023-03-01T16:26:40;23.40;53.30
22456;DHT22;11395;53.204;6.502;2023-03-01T16:29:06;23.40;53.40
22456;DHT22;11395;53.204;6.502;2023-03-01T16:35:19;23.40;54.00
22456;DHT22;11395;53.204;6.502;2023-03-01T16:37:47;23.30;53.80
22456;DHT22;11395;53.204;6.502;2023-03-01T16:40:23;23.30;53.60
22456;DHT22;11395;53.204;6.502;2023-03-01T16:42:50;23.20;53.70
22456;DHT22;11395;53.204;6.502;2023-03-01T16:45:18;23.20;54.10
22456;DHT22;11395;53.204;6.502;2023-03-01T16:47:44;23.20;55.20
22456;DHT22;11395;53.204;6.502;2023-03-01T16:50:11;23.20;56.00
22456;DHT22;11395;53.204;6.502;2023-03-01T16:52:37;23.20;56.20
22456;DHT22;11395;53.204;6.502;2023-03-01T16:55:06;23.10;55.90
22456;DHT22;11395;53.204;6.502;2023-03-01T16:57:37;23.10;56.00
22456;DHT22;11395;53.204;6.502;2023-03-01T17:00:05;23.00;56.20
22456;DHT22;11395;53.204;6.502;2023-03-01T17:02:36;23.00;56.10
22456;DHT22;11395;53.204;6.502;2023-03-01T17:05:03;22.90;56.30
22456;DHT22;11395;53.204;6.502;2023-03-01T17:07:31;22.90;56.20
22456;DHT22;11395;53.204;6.502;2023-03-01T17:10:00;22.90;56.20
22456;DHT22;11395;53.204;6.502;2023-03-01T17:12:27;22.90;56.20
22456;DHT22;11395;53.204;6.502;2023-03-01T17:14:53;22.90;55.90
22456;DHT22;11395;53.204;6.502;2023-03-01T17:17:22;23.00;55.60
22456;DHT22;11395;53.204;6.502;2023-03-01T17:19:49;23.00;55.70
22456;DHT22;11395;53.204;6.502;2023-03-01T17:22:19;23.10;55.60
22456;DHT22;11395;53.204;6.502;2023-03-01T17:24:45;23.80;56.10
22456;DHT22;11395;53.204;6.502;2023-03-01T17:27:21;23.30;55.70
22456;DHT22;11395;53.204;6.502;2023-03-01T17:29:47;23.30;55.10
22456;DHT22;11395;53.204;6.502;2023-03-01T17:32:16;23.40;55.10
22456;DHT22;11395;53.204;6.502;2023-03-01T17:34:42;23.00;55.20
22456;DHT22;11395;53.204;6.502;2023-03-01T17:37:08;23.50;55.50
22456;DHT22;11395;53.204;6.502;2023-03-01T17:39:34;23.50;55.00
22456;DHT22;11395;53.204;6.502;2023-03-01T17:42:02;23.50;54.30
22456;DHT22;11395;53.204;6.502;2023-03-01T17:44:30;23.40;54.20
22456;DHT22;11395;53.204;6.502;2023-03-01T17:46:57;23.40;54.30
22456;DHT22;11395;53.204;6.502;2023-03-01T17:49:23;23.30;54.00
22456;DHT22;11395;53.204;6.502;2023-03-01T17:51:50;23.30;54.00
22456;DHT22;11395;53.204;6.502;2023-03-01T17:54:16;23.20;53.90
22456;DHT22;11395;53.204;6.502;2023-03-01T17:56:42;23.20;54.30
22456;DHT22;11395;53.204;6.502;2023-03-01T17:59:08;23.20;54.00
22456;DHT22;11395;53.204;6.502;2023-03-01T18:01:34;23.20;54.00
22456;DHT22;11395;53.204;6.502;2023-03-01T18:04:01;23.10;54.80
22456;DHT22;11395;53.204;6.502;2023-03-01T18:06:28;23.00;53.90
22456;DHT22;11395;53.204;6.502;2023-03-01T18:09:01;23.00;54.20
22456;DHT22;11395;53.204;6.502;2023-03-01T18:11:28;22.40;54.70
22456;DHT22;11395;53.204;6.502;2023-03-01T18:13:54;23.00;54.90
22456;DHT22;11395;53.204;6.502;2023-03-01T18:16:22;22.90;54.80
22456;DHT22;11395;53.204;6.502;2023-03-01T18:18:52;22.90;54.70
22456;DHT22;11395;53.204;6.502;2023-03-01T18:21:19;22.80;54.90
22456;DHT22;11395;53.204;6.502;2023-03-01T18:23:49;22.80;54.60
22456;DHT22;11395;53.204;6.502;2023-03-01T18:26:19;22.80;55.00
22456;DHT22;11395;53.204;6.502;2023-03-01T18:28:50;22.80;55.10
22456;DHT22;11395;53.204;6.502;2023-03-01T18:31:30;22.70;55.50
22456;DHT22;11395;53.204;6.502;2023-03-01T18:34:10;22.80;55.80
22456;DHT22;11395;53.204;6.502;2023-03-01T18:36:40;22.80;55.10
22456;DHT22;11395;53.204;6.502;2023-03-01T18:39:07;22.90;55.50
22456;DHT22;11395;53.204;6.502;2023-03-01T18:41:37;23.00;55.10